createdAt,value
2023-04-10T00:01:25.780Z,62.14
2023-04-10T00:03:53.930Z,62.20
2023-04-10T00:06:29.872Z,62.24
2023-04-10T00:12:00.772Z,62.17
2023-04-10T00:14:27.395Z,62.39
2023-04-10T00:16:54.080Z,62.49
2023-04-10T00:19:20.760Z,62.28
2023-04-10T00:21:47.435Z,62.30
2023-04-10T00:24:56.767Z,62.40
2023-04-10T00:28:00.644Z,62.51
2023-04-10T00:30:27.384Z,62.68
2023-04-10T00:32:53.978Z,62.83
2023-04-10T00:35:20.698Z,63.31
2023-04-10T00:37:47.287Z,64.01
2023-04-10T00:40:13.977Z,64.29
2023-04-10T00:43:02.437Z,64.70
2023-04-10T00:45:29.262Z,64.56
2023-04-10T00:47:56.720Z,64.45
2023-04-10T00:50:23.868Z,64.40
2023-04-10T00:52:51.807Z,64.22
2023-04-10T01:06:32.658Z,63.09
2023-04-10T01:09:04.335Z,63.14
2023-04-10T01:11:45.396Z,63.04
2023-04-10T01:14:58.917Z,63.51
2023-04-10T01:17:38.999Z,63.29
2023-04-10T01:20:13.430Z,63.27
2023-04-10T01:27:18.229Z,63.72
2023-04-10T01:29:47.956Z,64.07
2023-04-10T01:32:20.614Z,64.17
2023-04-10T01:34:51.112Z,64.58
2023-04-10T01:37:24.585Z,64.55
2023-04-10T01:39:59.019Z,65.05
2023-04-10T01:45:02.034Z,65.82
2023-04-10T01:47:29.091Z,66.39
2023-04-10T01:49:57.777Z,66.56
2023-04-10T01:59:00.226Z,66.48
2023-04-10T02:01:30.055Z,66.04
2023-04-10T02:03:58.494Z,65.70
2023-04-10T02:06:26.091Z,65.68
2023-04-10T02:09:24.783Z,65.54
2023-04-10T02:12:18.616Z,65.46
2023-04-10T02:14:47.388Z,65.40
2023-04-10T02:17:23.559Z,65.09
2023-04-10T02:19:53.278Z,64.91
2023-04-10T02:28:39.976Z,65.45
2023-04-10T02:31:07.381Z,65.57
2023-04-10T02:33:34.090Z,65.72
2023-04-10T02:36:01.530Z,65.58
2023-04-10T02:38:28.169Z,65.64
2023-04-10T02:40:54.762Z,65.58
2023-04-10T02:43:21.418Z,65.25
2023-04-10T02:45:48.030Z,65.22
2023-04-10T02:48:14.849Z,65.08
2023-04-10T02:50:46.139Z,64.96
2023-04-10T02:53:16.888Z,64.82
2023-04-10T02:55:43.493Z,64.80
2023-04-10T03:02:03.797Z,64.85
2023-04-10T03:04:38.646Z,65.12
2023-04-10T03:07:05.638Z,65.02
2023-04-10T03:09:32.205Z,65.34
2023-04-10T03:12:20.701Z,65.28
2023-04-10T03:14:47.432Z,65.38
2023-04-10T03:17:14.061Z,65.22
2023-04-10T03:19:40.883Z,65.31
2023-04-10T03:22:07.619Z,66.22
2023-04-10T03:24:34.438Z,67.18
2023-04-10T03:29:43.095Z,68.51
2023-04-10T03:32:09.648Z,68.70
2023-04-10T03:34:36.667Z,68.65
2023-04-10T03:37:27.717Z,68.22
2023-04-10T03:43:13.504Z,66.67
2023-04-10T03:45:43.098Z,66.41
2023-04-10T03:48:20.450Z,66.23
2023-04-10T03:50:56.962Z,65.96
2023-04-10T03:58:45.158Z,65.29
2023-04-10T04:25:10.977Z,67.27
2023-04-10T04:30:19.502Z,66.42
2023-04-10T04:32:46.129Z,66.11
2023-04-10T04:35:12.719Z,65.98
2023-04-10T04:37:39.310Z,65.98
2023-04-10T04:40:06.382Z,65.89
2023-04-10T04:47:49.524Z,66.21
2023-04-10T04:50:16.387Z,66.13
2023-04-10T04:52:44.260Z,66.02
2023-04-10T04:55:10.907Z,65.92
2023-04-10T04:57:56.243Z,65.97
2023-04-10T05:00:23.163Z,66.58
2023-04-10T05:02:52.794Z,66.85
2023-04-10T05:05:19.554Z,66.97
2023-04-10T05:07:48.744Z,67.10
2023-04-10T05:13:17.434Z,67.90
2023-04-10T05:15:45.085Z,67.55
2023-04-10T05:18:13.763Z,67.69
2023-04-10T05:20:40.643Z,67.19
2023-04-10T05:27:06.912Z,66.95
2023-04-10T05:29:33.675Z,66.86
2023-04-10T05:32:00.336Z,66.65
2023-04-10T05:34:26.915Z,66.35
2023-04-10T05:36:53.728Z,66.01
2023-04-10T05:39:20.592Z,65.61
2023-04-10T05:42:05.850Z,65.41
2023-04-10T05:44:32.429Z,64.62
2023-04-10T05:46:59.025Z,64.74
2023-04-10T05:49:25.693Z,63.60
2023-04-10T05:55:28.703Z,63.30
2023-04-10T05:57:55.314Z,62.67
2023-04-10T06:00:22.020Z,61.85
2023-04-10T06:07:59.189Z,59.06
2023-04-10T06:10:57.334Z,58.09
2023-04-10T06:13:47.372Z,57.76
2023-04-10T06:29:43.602Z,57.10
2023-04-10T06:32:13.151Z,55.85
2023-04-10T06:34:39.720Z,54.75
2023-04-10T06:37:06.346Z,53.39
2023-04-10T06:39:33.160Z,48.54
2023-04-10T06:42:20.427Z,45.96
2023-04-10T06:44:46.981Z,42.82
2023-04-10T06:47:13.779Z,43.54
2023-04-10T06:49:40.399Z,44.19
2023-04-10T06:56:09.354Z,45.27
2023-04-10T06:58:36.011Z,45.96
2023-04-10T07:01:04.739Z,46.16
2023-04-10T07:03:32.608Z,46.82
2023-04-10T07:05:59.889Z,45.93
2023-04-10T07:08:26.490Z,46.81
2023-04-10T07:10:53.176Z,47.36
2023-04-10T07:13:19.768Z,47.11
2023-04-10T07:15:46.664Z,48.12
2023-04-10T07:18:13.304Z,47.52
2023-04-10T07:20:40.165Z,47.76
2023-04-10T07:23:06.989Z,47.66
2023-04-10T07:25:34.077Z,47.36
2023-04-10T07:28:03.512Z,46.89
2023-04-10T07:30:30.398Z,46.55
2023-04-10T07:38:35.702Z,47.24
2023-04-10T07:41:02.652Z,45.95
2023-04-10T07:43:29.882Z,45.21
2023-04-10T07:45:56.948Z,44.74
2023-04-10T07:48:23.874Z,44.77
2023-04-10T07:50:50.452Z,44.12
2023-04-10T07:53:17.116Z,42.63
2023-04-10T07:55:47.542Z,42.61
2023-04-10T07:58:17.190Z,41.73
2023-04-10T08:00:43.818Z,40.17
2023-04-10T08:03:15.954Z,37.62
2023-04-10T08:05:42.727Z,37.14
2023-04-10T08:08:09.326Z,36.11
2023-04-10T08:10:39.402Z,35.84
2023-04-10T08:13:06.324Z,33.64
2023-04-10T08:15:38.159Z,32.58
2023-04-10T08:18:08.041Z,33.33
2023-04-10T08:20:37.094Z,33.93
2023-04-10T08:25:53.728Z,35.22
2023-04-10T08:28:21.353Z,34.11
2023-04-10T08:30:47.984Z,35.01
2023-04-10T08:33:14.610Z,37.21
2023-04-10T08:35:41.292Z,36.64
2023-04-10T08:38:13.420Z,36.23
2023-04-10T08:40:41.589Z,36.24
2023-04-10T08:43:08.195Z,36.62
2023-04-10T08:45:34.735Z,35.33
2023-04-10T08:48:06.464Z,36.38
2023-04-10T08:50:36.202Z,36.54
2023-04-10T08:53:10.884Z,35.85
2023-04-10T08:55:38.974Z,35.44
2023-04-10T08:58:06.105Z,35.60
2023-04-10T09:00:38.579Z,35.30
2023-04-10T09:03:11.771Z,34.84
2023-04-10T09:05:38.659Z,34.62
2023-04-10T09:08:07.251Z,30.97
2023-04-10T09:10:48.357Z,31.54
2023-04-10T09:13:14.905Z,30.80
2023-04-10T09:15:59.008Z,29.75
2023-04-10T09:18:45.532Z,29.68
2023-04-10T09:25:28.655Z,30.89
2023-04-10T09:28:09.781Z,31.17
2023-04-10T09:30:42.410Z,31.82
2023-04-10T09:33:30.146Z,31.58
2023-04-10T09:35:59.939Z,31.23
2023-04-10T09:38:26.989Z,32.62
2023-04-10T09:41:14.137Z,32.75
2023-04-10T09:43:43.431Z,31.95
2023-04-10T09:46:10.030Z,32.73
2023-04-10T09:48:36.702Z,32.20
2023-04-10T09:51:45.133Z,32.74
2023-04-10T09:54:37.066Z,33.65
2023-04-10T09:57:05.637Z,32.21
2023-04-10T09:59:32.785Z,28.83
2023-04-10T10:01:59.469Z,31.33
2023-04-10T10:04:27.151Z,30.68
2023-04-10T10:06:54.349Z,29.32
2023-04-10T10:09:44.223Z,29.40
2023-04-10T10:12:12.794Z,30.10
2023-04-10T10:14:57.347Z,30.10
2023-04-10T10:17:29.656Z,30.15
2023-04-10T10:20:35.416Z,29.61
2023-04-10T10:23:25.861Z,29.99
2023-04-10T10:25:54.721Z,31.18
2023-04-10T10:28:21.705Z,30.91
2023-04-10T10:30:51.646Z,31.59
2023-04-10T10:33:18.925Z,32.02
2023-04-10T10:35:46.839Z,30.84
2023-04-10T10:41:15.403Z,31.24
2023-04-10T10:43:54.763Z,31.51
2023-04-10T10:46:36.422Z,31.02
2023-04-10T10:49:03.051Z,30.87
2023-04-10T10:51:51.720Z,31.13
2023-04-10T10:55:20.921Z,31.76
2023-04-10T10:58:11.087Z,32.56
2023-04-10T11:00:52.854Z,31.11
2023-04-10T11:03:19.536Z,30.86
2023-04-10T11:05:54.214Z,30.95
2023-04-10T11:08:33.628Z,30.62
2023-04-10T11:11:09.616Z,31.66
2023-04-10T11:16:43.859Z,33.04
2023-04-10T11:19:19.001Z,33.07
2023-04-10T11:22:08.361Z,32.42
2023-04-10T11:24:56.270Z,33.39
2023-04-10T11:27:41.831Z,33.55
2023-04-10T11:31:04.886Z,33.23
2023-04-10T11:45:28.291Z,33.09
2023-04-10T11:48:13.036Z,33.09
2023-04-10T11:50:39.648Z,34.07
2023-04-10T11:53:19.036Z,34.26
2023-04-10T11:55:46.706Z,34.24
2023-04-10T11:59:09.956Z,34.00
2023-04-10T12:02:15.937Z,35.35
2023-04-10T12:04:44.216Z,35.61
2023-04-10T12:07:11.602Z,35.07
2023-04-10T12:09:38.544Z,35.13
2023-04-10T12:12:07.276Z,36.54
2023-04-10T12:14:41.845Z,36.75
2023-04-10T12:17:23.723Z,38.30
2023-04-10T12:19:50.378Z,38.40
2023-04-10T12:22:17.156Z,38.38
2023-04-10T12:24:45.071Z,39.34
2023-04-10T12:27:19.109Z,39.64
2023-04-10T12:30:17.127Z,39.41
2023-04-10T12:33:04.577Z,39.04
2023-04-10T12:35:44.109Z,41.56
2023-04-10T12:38:10.810Z,41.54
2023-04-10T12:40:38.558Z,40.35
2023-04-10T12:43:05.442Z,39.97
2023-04-10T12:45:45.091Z,38.54
2023-04-10T12:48:23.757Z,37.92
2023-04-10T12:50:50.602Z,37.07
2023-04-10T12:53:17.213Z,37.99
2023-04-10T12:56:03.575Z,39.38
2023-04-10T12:58:46.315Z,39.81
2023-04-10T13:01:39.036Z,38.57
2023-04-10T13:04:05.875Z,38.80
2023-04-10T13:06:32.853Z,38.44
2023-04-10T13:08:59.424Z,37.61
2023-04-10T13:11:25.965Z,37.17
2023-04-10T13:13:52.769Z,37.27
2023-04-10T13:16:38.224Z,36.89
2023-04-10T13:19:05.206Z,37.41
2023-04-10T13:21:31.939Z,37.31
2023-04-10T13:23:58.521Z,38.00
2023-04-10T13:26:25.357Z,36.85
2023-04-10T13:29:29.623Z,37.28
2023-04-10T13:32:06.050Z,36.30
2023-04-10T13:34:33.842Z,37.30
2023-04-10T13:37:00.966Z,37.21
2023-04-10T13:39:31.866Z,36.49
2023-04-10T13:41:59.656Z,36.61
2023-04-10T13:44:26.659Z,35.33
2023-04-10T13:49:31.014Z,35.51
2023-04-10T13:51:58.113Z,35.14
2023-04-10T13:54:24.774Z,36.91
2023-04-10T13:57:35.352Z,35.36
2023-04-10T14:00:36.358Z,35.56
2023-04-10T14:03:03.285Z,35.11
2023-04-10T14:05:30.018Z,35.33
2023-04-10T14:07:57.098Z,35.43
2023-04-10T14:10:24.335Z,36.16
2023-04-10T14:12:51.151Z,35.80
2023-04-10T14:18:05.878Z,36.10
2023-04-10T14:20:32.482Z,36.62
2023-04-10T14:22:59.085Z,35.98
2023-04-10T14:29:25.458Z,36.82
2023-04-10T14:32:15.472Z,36.96
2023-04-10T14:34:41.889Z,36.62
2023-04-10T14:37:08.492Z,35.97
2023-04-10T14:39:35.473Z,35.79
2023-04-10T14:42:02.641Z,36.28
2023-04-10T14:44:30.007Z,36.29
2023-04-10T14:46:56.688Z,36.23
2023-04-10T14:49:23.428Z,36.42
2023-04-10T14:51:50.437Z,36.22
2023-04-10T14:54:17.182Z,35.94
2023-04-10T14:57:32.009Z,36.54
2023-04-10T15:00:33.033Z,36.13
2023-04-10T15:03:00.389Z,35.16
2023-04-10T15:05:27.736Z,34.89
2023-04-10T15:07:55.084Z,35.18
2023-04-10T15:10:21.891Z,34.79
2023-04-10T15:12:48.497Z,34.85
2023-04-10T15:15:33.703Z,35.13
2023-04-10T15:18:00.484Z,35.47
2023-04-10T15:20:27.083Z,35.28
2023-04-10T15:22:53.747Z,35.07
2023-04-10T15:29:32.326Z,36.66
2023-04-10T15:32:01.888Z,35.69
2023-04-10T15:34:28.513Z,35.63
2023-04-10T15:36:55.132Z,35.32
2023-04-10T15:39:24.252Z,34.68
2023-04-10T15:41:50.873Z,34.48
2023-04-10T15:47:12.955Z,36.27
2023-04-10T15:49:39.521Z,36.67
2023-04-10T15:52:07.031Z,35.76
2023-04-10T15:54:35.136Z,36.86
2023-04-10T15:57:02.343Z,36.12
2023-04-10T15:59:30.335Z,36.40
2023-04-10T16:02:55.841Z,36.17
2023-04-10T16:05:41.424Z,35.92
2023-04-10T16:08:08.022Z,36.44
2023-04-10T16:10:35.957Z,36.07
2023-04-10T16:13:05.077Z,36.45
2023-04-10T16:15:34.676Z,36.52
2023-04-10T16:18:01.387Z,36.41
2023-04-10T16:20:46.544Z,35.38
2023-04-10T16:23:13.150Z,35.17
2023-04-10T16:25:39.770Z,35.52
2023-04-10T16:28:08.104Z,35.20
2023-04-10T16:34:27.616Z,34.28
2023-04-10T16:36:54.876Z,34.41
2023-04-10T16:39:21.489Z,35.03
2023-04-10T16:41:48.091Z,35.20
2023-04-10T16:44:14.693Z,35.10
2023-04-10T16:46:41.450Z,35.74
2023-04-10T16:49:08.054Z,35.22
2023-04-10T16:51:34.676Z,35.98
2023-04-10T16:54:01.283Z,35.47
2023-04-10T16:56:27.822Z,35.82
2023-04-10T16:58:54.777Z,35.64
2023-04-10T17:01:26.202Z,36.08
2023-04-10T17:03:54.272Z,35.94
2023-04-10T17:06:21.169Z,35.84
2023-04-10T17:08:48.224Z,36.05
2023-04-10T17:11:14.955Z,36.34
2023-04-10T17:13:41.753Z,36.18
2023-04-10T17:16:09.872Z,35.66
2023-04-10T17:18:37.163Z,36.88
2023-04-10T17:21:04.017Z,36.60
2023-04-10T17:23:30.660Z,36.33
2023-04-10T17:25:57.233Z,36.28
2023-04-10T17:28:23.870Z,36.35
2023-04-10T17:30:50.568Z,37.05
2023-04-10T17:33:17.175Z,36.64
2023-04-10T17:35:43.937Z,36.66
2023-04-10T17:38:10.608Z,37.18
2023-04-10T17:40:38.463Z,37.63
2023-04-10T17:43:05.071Z,39.11
2023-04-10T17:45:31.718Z,38.99
2023-04-10T17:47:58.462Z,40.00
2023-04-10T17:50:26.002Z,39.63
2023-04-10T17:52:52.971Z,38.88
2023-04-10T17:55:20.686Z,38.74
2023-04-10T17:57:48.951Z,38.87
2023-04-10T18:00:20.052Z,41.17
2023-04-10T18:02:48.359Z,39.99
2023-04-10T18:05:15.350Z,38.54
2023-04-10T18:07:41.988Z,38.35
2023-04-10T18:10:11.422Z,38.73
2023-04-10T18:12:38.226Z,38.79
2023-04-10T18:15:05.537Z,38.84
2023-04-10T18:17:32.210Z,40.09
2023-04-10T18:19:59.050Z,42.04
2023-04-10T18:22:25.691Z,42.49
2023-04-10T18:24:52.331Z,41.62
2023-04-10T18:27:18.974Z,42.42
2023-04-10T18:29:51.306Z,43.29
2023-04-10T18:32:20.550Z,45.10
2023-04-10T18:34:47.448Z,44.85
2023-04-10T18:37:14.463Z,44.64
2023-04-10T18:39:41.382Z,43.84
2023-04-10T18:42:12.580Z,43.63
2023-04-10T18:44:39.431Z,45.46
2023-04-10T18:47:06.355Z,47.11
2023-04-10T18:49:33.046Z,48.47
2023-04-10T18:52:00.299Z,48.79
2023-04-10T18:54:29.672Z,48.21
2023-04-10T18:56:59.012Z,47.96
2023-04-10T18:59:27.284Z,49.17
2023-04-10T19:01:54.154Z,49.01
2023-04-10T19:04:21.160Z,48.36
2023-04-10T19:06:47.880Z,49.06
2023-04-10T19:09:14.721Z,51.48
2023-04-10T19:11:44.739Z,51.87
2023-04-10T19:14:11.314Z,52.50
2023-04-10T19:16:39.151Z,54.38
2023-04-10T19:19:06.031Z,54.99
2023-04-10T19:21:34.423Z,54.52
2023-04-10T19:24:00.997Z,54.70
2023-04-10T19:26:27.700Z,54.14
2023-04-10T19:28:55.127Z,53.60
2023-04-10T19:31:23.546Z,52.80
2023-04-10T19:33:50.195Z,51.74
2023-04-10T19:36:18.640Z,51.36
2023-04-10T19:38:48.650Z,51.67
2023-04-10T19:41:15.735Z,51.49
2023-04-10T19:43:42.735Z,51.46
2023-04-10T19:46:17.405Z,51.83
2023-04-10T19:48:44.100Z,52.93
2023-04-10T19:51:10.868Z,53.64
2023-04-10T19:53:38.213Z,54.36
2023-04-10T19:56:05.521Z,54.58
2023-04-10T19:58:40.651Z,54.73
2023-04-10T20:01:19.065Z,55.47
2023-04-10T20:03:45.914Z,57.06
2023-04-10T20:06:13.085Z,57.20
2023-04-10T20:08:39.777Z,56.94
2023-04-10T20:11:06.819Z,56.81
2023-04-10T20:13:34.946Z,56.83
2023-04-10T20:16:02.081Z,57.00
2023-04-10T20:18:28.773Z,58.09
2023-04-10T20:20:55.428Z,58.00
2023-04-10T20:23:22.029Z,57.84
2023-04-10T20:25:48.628Z,57.90
2023-04-10T20:28:16.867Z,59.12
2023-04-10T20:30:44.074Z,59.04
2023-04-10T20:33:11.548Z,58.78
2023-04-10T20:35:38.318Z,59.10
2023-04-10T20:38:05.158Z,59.78
2023-04-10T20:40:31.829Z,60.15
2023-04-10T20:42:58.409Z,60.38
2023-04-10T20:45:24.985Z,60.52
2023-04-10T20:47:51.733Z,60.02
2023-04-10T20:50:18.740Z,60.06
2023-04-10T20:52:45.434Z,59.86
2023-04-10T20:55:12.182Z,59.81
2023-04-10T20:57:38.750Z,59.72
2023-04-10T21:00:05.988Z,59.90
2023-04-10T21:02:32.689Z,60.13
2023-04-10T21:05:20.712Z,60.66
2023-04-10T21:08:21.192Z,60.36
2023-04-10T21:10:47.754Z,60.27
2023-04-10T21:13:15.149Z,59.98
2023-04-10T21:15:43.209Z,59.93
2023-04-10T21:18:10.316Z,60.27
2023-04-10T21:20:37.059Z,60.54
2023-04-10T21:23:25.446Z,60.93
2023-04-10T21:25:54.965Z,61.29
2023-04-10T21:28:21.578Z,61.84
2023-04-10T21:30:48.248Z,62.35
2023-04-10T21:34:10.983Z,61.84
2023-04-10T21:39:49.983Z,62.81
2023-04-10T21:42:18.433Z,62.64
2023-04-10T21:44:45.046Z,63.14
2023-04-10T21:47:11.624Z,62.77
2023-04-10T21:49:40.544Z,62.53
2023-04-10T21:52:07.180Z,62.89
2023-04-10T21:54:33.729Z,63.19
2023-04-10T21:57:00.304Z,63.48
2023-04-10T21:59:27.141Z,64.11
2023-04-10T22:01:53.778Z,63.75
2023-04-10T22:04:20.596Z,63.93
2023-04-10T22:06:47.200Z,64.28
2023-04-10T22:09:14.182Z,64.05
2023-04-10T22:11:41.064Z,64.51
2023-04-10T22:14:15.388Z,64.48
2023-04-10T22:16:43.986Z,64.10
2023-04-10T22:22:32.898Z,64.96
2023-04-10T22:24:59.629Z,64.87
2023-04-10T22:27:26.236Z,64.89
2023-04-10T22:30:02.057Z,65.39
2023-04-10T22:32:30.424Z,65.73
2023-04-10T22:34:58.861Z,66.76
2023-04-10T22:37:26.005Z,67.06
2023-04-10T22:39:52.862Z,66.17
2023-04-10T22:42:19.489Z,66.54
2023-04-10T22:44:46.067Z,67.16
2023-04-10T22:47:12.688Z,68.15
2023-04-10T22:49:39.353Z,67.73
2023-04-10T22:52:08.558Z,67.75
2023-04-10T22:54:35.153Z,68.15
2023-04-10T22:57:01.685Z,68.48
2023-04-10T22:59:28.235Z,68.41
2023-04-10T23:01:54.869Z,69.26
2023-04-10T23:04:21.549Z,69.45
2023-04-10T23:06:48.201Z,69.06
2023-04-10T23:09:14.797Z,68.49
2023-04-10T23:11:41.413Z,68.04
2023-04-10T23:14:08.098Z,69.49
2023-04-10T23:16:34.756Z,69.56
2023-04-10T23:19:01.429Z,69.89
2023-04-10T23:21:27.972Z,70.04
2023-04-10T23:23:54.580Z,69.97
2023-04-10T23:26:21.223Z,69.24
2023-04-10T23:28:48.084Z,68.06
2023-04-10T23:31:15.894Z,67.43
2023-04-10T23:33:42.536Z,67.35
2023-04-10T23:36:09.378Z,68.69
2023-04-10T23:38:36.326Z,68.73
2023-04-10T23:41:03.164Z,69.49
2023-04-10T23:43:29.912Z,69.34
2023-04-10T23:45:56.492Z,69.49
2023-04-10T23:48:23.101Z,69.44
2023-04-10T23:50:49.911Z,69.99
2023-04-10T23:53:16.951Z,70.22
2023-04-10T23:55:43.639Z,70.28
2023-04-10T23:58:10.565Z,69.59
